Flight Track Log - Related Links

Times and Time Zones

All times are in EDT time to prevent confusion due to time zone crossing. See the GJS3707 flight status page for this flight to view local times or setup timezone preferences in your user account.

Time Position Orientation Groundspeed Altitude Reporting Facility
EDT Latitude Longitude Course Direction KTS MPH feet Rate Location/Type
Fri 05:16:48 PM 43.5850 -116.2972 81° East 181 208 5,100  Level Salt Lake Center
Fri 05:17:50 PM 43.6308 -116.3250 336° Northwest 215 247 6,900 1,742 Climbing Salt Lake Center
Fri 05:18:00 PM 43.6338 -115.7134 78° East  Level FlightAware Approximate
Fri 05:18:52 PM 43.6653 -116.2394 61° Northeast 265 305 8,700  Level Salt Lake Center
Fri 05:19:00 PM 43.6602 -115.5421 78° East  Level FlightAware Approximate
Fri 05:19:54 PM 43.6781 -116.1328 81° East 292 336 10,500  Level Salt Lake Center
Fri 05:20:00 PM 43.6786 -115.3689 83° East  Level FlightAware Approximate
Fri 05:20:55 PM 43.6933 -115.9933 81° East 328 377 12,300  Level Salt Lake Center
Fri 05:21:00 PM 43.7038 -115.1996 81° East  Level FlightAware Approximate
Fri 05:21:57 PM 43.7106 -115.8653 79° East 352 405 13,800  Level Salt Lake Center
Fri 05:22:00 PM 43.7231 -115.0263 81° East  Level FlightAware Approximate
Fri 05:22:59 PM 43.7303 -115.7031 80° East 380 437 15,300  Level Salt Lake Center
Fri 05:24:01 PM 43.7464 -115.5586 81° East 395 455 16,900 1,366 Climbing Salt Lake Center
Fri 05:25:02 PM 43.7672 -115.3850 81° East 410 472 18,100 1,122 Climbing Salt Lake Center
Fri 05:26:04 PM 43.7850 -115.2289 81° East 427 491 19,200 1,258 Climbing Salt Lake Center
Fri 05:27:06 PM 43.8069 -115.0447 81° East 435 501 20,700 1,355 Climbing Salt Lake Center
Fri 05:28:08 PM 43.8250 -114.8833 81° East 444 511 22,000 1,268 Climbing Salt Lake Center
Fri 05:29:09 PM 43.8453 -114.6953 81° East 442 509 23,300 1,122 Climbing Salt Lake Center
Fri 05:30:11 PM 43.8631 -114.5311 81° East 451 519 24,300 1,016 Climbing Salt Lake Center
Fri 05:31:13 PM 43.8847 -114.3350 81° East 461 531 25,400 1,016 Climbing Salt Lake Center
Fri 05:32:15 PM 43.9017 -114.1658 82° East 466 536 26,400 919 Climbing Salt Lake Center
Fri 05:33:17 PM 43.9131 -113.9897 85° East 481 554 27,300 1,016 Climbing Salt Lake Center
Fri 05:34:19 PM 43.9236 -113.7761 86° East 481 554 28,500 1,065 Climbing Salt Lake Center
Fri 05:35:21 PM 43.9325 -113.5992 86° East 481 554 29,500 927 Climbing Salt Lake Center
Fri 05:36:22 PM 43.9403 -113.3928 87° East 480 552 30,400 683 Climbing Salt Lake Center
Fri 05:37:24 PM 43.9489 -113.2119 86° East 489 563 30,900 290 Climbing Salt Lake Center
Fri 05:38:26 PM 43.9581 -113.0300 86° East 495 570 31,000 48 Climbing Salt Lake Center
Fri 05:39:28 PM 43.9678 -112.8139 86° East 502 578 31,000  Level Salt Lake Center
Fri 05:40:30 PM 43.9767 -112.6281 86° East 504 580 31,000  Level Salt Lake Center
Fri 05:41:32 PM 43.9850 -112.4128 87° East 502 578 31,000  Level Salt Lake Center
Fri 05:42:34 PM 43.9922 -112.2300 87° East 498 573 31,000  Level Salt Lake Center
Fri 05:43:36 PM 43.9997 -112.0181 87° East 494 568 31,000  Level Salt Lake Center
Fri 05:44:37 PM 44.0067 -111.8367 87° East 494 568 31,000  Level Salt Lake Center
Fri 05:45:39 PM 44.0133 -111.6222 87° East 500 575 31,000  Level Salt Lake Center
Fri 05:46:41 PM 44.0200 -111.4394 87° East 499 574 31,000  Level Salt Lake Center
Fri 05:47:43 PM 44.0272 -111.2269 87° East 498 573 31,000  Level Salt Lake Center
Fri 05:48:45 PM 44.0314 -111.0458 88° East 495 570 31,000  Level Salt Lake Center
Fri 05:49:47 PM 44.0386 -110.8303 87° East 503 579 31,000  Level Salt Lake Center
Fri 05:50:48 PM 44.0442 -110.6472 88° East 500 575 31,000  Level Salt Lake Center
Fri 05:51:50 PM 44.0472 -110.4353 89° East 495 570 31,000  Level Salt Lake Center
Fri 05:52:52 PM 44.0517 -110.2522 88° East 494 568 31,000  Level Salt Lake Center
Fri 05:53:54 PM 44.0561 -110.0389 88° East 495 570 31,000  Level Salt Lake Center
Fri 05:54:56 PM 44.0583 -109.8569 89° East 494 568 31,000  Level Salt Lake Center
Fri 05:55:57 PM 44.0631 -109.6739 88° East 494 568 31,000  Level Salt Lake Center
Fri 05:56:59 PM 44.0650 -109.4567 89° East 493 567 31,000  Level Salt Lake Center
Fri 05:58:01 PM 44.0675 -109.2761 89° East 489 563 31,000  Level Salt Lake Center
Fri 05:59:03 PM 44.0692 -109.0617 89° East 499 574 31,000  Level Salt Lake Center
Fri 06:00:05 PM 44.0717 -108.8775 89° East 500 575 31,000  Level Salt Lake Center
Fri 06:01:06 PM 44.0731 -108.6614 89° East 503 579 31,000  Level Salt Lake Center
Fri 06:02:08 PM 44.0744 -108.4761 89° East 503 579 31,000  Level Salt Lake Center
Fri 06:03:10 PM 44.0756 -108.2911 89° East 504 580 31,000  Level Salt Lake Center
Fri 06:04:12 PM 44.0761 -108.0742 90° East 504 580 31,000  Level Salt Lake Center
Fri 06:05:13 PM 44.0772 -107.8894 89° East 500 575 31,000  Level Salt Lake Center
Fri 06:06:15 PM 44.0769 -107.6744 90° East 500 575 31,000  Level Salt Lake Center
Fri 06:07:17 PM 44.0758 -107.4903 90° East 501 577 31,000  Level Salt Lake Center
Fri 06:08:19 PM 44.0756 -107.2761 90° East 499 574 31,000  Level Salt Lake Center
Fri 06:09:21 PM 44.0744 -107.0947 90° East 494 568 31,000  Level Salt Lake Center
Fri 06:09:55 PM 44.0739 -106.9736 90° East 491 565 31,000  Level Denver Center
Fri 06:10:57 PM 44.0719 -106.7708 91° East 491 565 31,000  Level Denver Center
Fri 06:11:24 PM 44.0717 -106.7025 90° East 489 563 31,000  Level Salt Lake Center
Fri 06:11:59 PM 44.0706 -106.5906 91° East 487 560 31,000  Level Denver Center
Fri 06:13:01 PM 44.0689 -106.3786 91° East 490 564 31,000  Level Denver Center
Fri 06:13:28 PM 44.0675 -106.3075 92° East 496 571 31,000  Level Salt Lake Center
Fri 06:14:30 PM 44.0672 -106.0981 90° East 503 579 31,000  Level Salt Lake Center
Fri 06:15:05 PM 44.0650 -106.0056 92° East 503 579 31,000  Level Denver Center
Fri 06:16:07 PM 44.0614 -105.7872 91° East 505 581 31,000  Level Denver Center
Fri 06:17:09 PM 44.0575 -105.6008 92° East 506 582 31,000  Level Denver Center
Fri 06:18:11 PM 44.0519 -105.3814 92° East 507 583 31,000  Level Denver Center
Fri 06:19:13 PM 44.0478 -105.1944 92° East 507 583 31,000  Level Denver Center
Fri 06:20:14 PM 44.0425 -104.9753 92° East 507 583 31,000  Level Denver Center
Fri 06:21:16 PM 44.0375 -104.7872 92° East 507 583 31,000  Level Denver Center
Fri 06:22:30 PM 44.0314 -104.5672 92° East 509 586 31,000  Level Denver Center
Fri 06:23:33 PM 44.0247 -104.3481 92° East 508 585 31,000  Level Denver Center
Fri 06:24:35 PM 44.0178 -104.1303 92° East 506 582 31,000  Level Denver Center
Fri 06:25:37 PM 44.0106 -103.9400 93° East 513 590 31,000  Level Denver Center
Fri 06:26:38 PM 44.0050 -103.7819 93° East 513 590 31,000  Level Denver Center
Fri 06:27:40 PM 43.9978 -103.5319 92° East 508 585 31,000  Level Denver Center
Fri 06:28:42 PM 43.9906 -103.3439 93° East 509 586 31,000  Level Denver Center
Fri 06:29:44 PM 43.9828 -103.1256 93° East 508 585 31,000  Level Denver Center
Fri 06:30:46 PM 43.9747 -102.9375 93° East 508 585 31,000  Level Denver Center
Fri 06:31:49 PM 43.9675 -102.7056 92° East 514 592 31,000  Level Denver Center
Fri 06:32:50 PM 43.9622 -102.5106 92° East 510 587 31,000  Level Denver Center
Fri 06:33:52 PM 43.9556 -102.3131 93° East 511 588 31,000  Level Denver Center
Fri 06:34:54 PM 43.9472 -102.1169 93° East 511 588 31,000  Level Denver Center
Fri 06:35:56 PM 43.9394 -101.9211 93° East 511 588 31,000  Level Denver Center
Fri 06:36:58 PM 43.9317 -101.7261 93° East 509 586 31,000  Level Denver Center
Fri 06:37:56 PM 43.9275 -101.5356 92° East 507 583 31,000  Level Minneapolis Center
Fri 06:39:02 PM 43.9203 -101.3022 92° East 508 585 31,000  Level Denver Center
Fri 06:40:00 PM 43.9114 -101.1089 94° East 507 583 31,000  Level Minneapolis Center
Fri 06:41:02 PM 43.9036 -100.9169 93° East 505 581 31,000  Level Minneapolis Center
Fri 06:42:04 PM 43.8947 -100.7228 94° East 506 582 31,000  Level Minneapolis Center
Fri 06:43:06 PM 43.8867 -100.5278 93° East 508 585 31,000  Level Minneapolis Center
Fri 06:44:09 PM 43.8767 -100.3333 94° East 508 585 31,000  Level Minneapolis Center
Fri 06:45:11 PM 43.8678 -100.1400 94° East 506 582 31,000  Level Minneapolis Center
Fri 06:46:13 PM 43.8547 -99.9092 94° East 504 580 31,000  Level Minneapolis Center
Fri 06:47:15 PM 43.8453 -99.7147 94° East 507 583 31,000  Level Minneapolis Center
Fri 06:48:17 PM 43.8347 -99.5214 94° East 507 583 31,000  Level Minneapolis Center
Fri 06:49:19 PM 43.8242 -99.3267 94° East 509 586 31,000  Level Minneapolis Center
Fri 06:50:21 PM 43.8125 -99.1331 95° East 508 585 31,000  Level Minneapolis Center
Fri 06:51:23 PM 43.7989 -98.9014 95° East 505 581 31,000  Level Minneapolis Center
Fri 06:52:25 PM 43.7875 -98.7075 95° East 506 582 31,000  Level Minneapolis Center
Fri 06:53:27 PM 43.7756 -98.5267 95° East 509 586 31,000  Level Minneapolis Center
Fri 06:54:29 PM 43.7625 -98.3342 95° East 506 582 31,000  Level Minneapolis Center
Fri 06:55:31 PM 43.7475 -98.1031 95° East 505 581 31,000  Level Minneapolis Center
Fri 06:56:33 PM 43.7342 -97.9106 95° East 504 580 31,000  Level Minneapolis Center
Fri 06:57:36 PM 43.7203 -97.7183 96° East 505 581 31,000  Level Minneapolis Center
Fri 06:58:38 PM 43.7067 -97.5258 96° East 505 581 31,000  Level Minneapolis Center
Fri 06:59:40 PM 43.6914 -97.3333 96° East 507 583 31,000  Level Minneapolis Center
Fri 07:00:44 PM 43.6736 -97.1017 96° East 508 585 31,000  Level Minneapolis Center
Fri 07:01:46 PM 43.6589 -96.9106 96° East 506 582 31,000  Level Minneapolis Center
Fri 07:02:48 PM 43.6408 -96.7194 97° East 506 582 31,000  Level Minneapolis Center
Fri 07:03:50 PM 43.6131 -96.5289 101° East 512 589 31,000  Level Minneapolis Center
Fri 07:04:52 PM 43.5781 -96.2989 102° East 517 595 31,000  Level Minneapolis Center
Fri 07:05:54 PM 43.5500 -96.1086 101° East 514 592 31,000  Level Minneapolis Center
Fri 07:06:56 PM 43.5211 -95.9161 102° East 516 594 31,000  Level Minneapolis Center
Fri 07:07:59 PM 43.4908 -95.7256 102° East 515 593 31,000  Level Minneapolis Center
Fri 07:09:01 PM 43.4614 -95.5328 102° East 518 596 31,000  Level Minneapolis Center
Fri 07:10:03 PM 43.4250 -95.3022 102° East 517 595 31,000  Level Minneapolis Center
Fri 07:11:05 PM 43.3942 -95.1089 102° East 520 598 31,000  Level Minneapolis Center
Fri 07:12:07 PM 43.3631 -94.9136 102° East 525 604 31,000  Level Minneapolis Center
Fri 07:13:09 PM 43.3306 -94.7203 103° East 521 600 31,000  Level Minneapolis Center
Fri 07:14:11 PM 43.2994 -94.5258 102° East 522 601 31,000  Level Minneapolis Center
Fri 07:15:13 PM 43.2661 -94.3328 103° East 522 601 31,000  Level Minneapolis Center
Fri 07:16:15 PM 43.2303 -94.1208 103° East 523 602 31,000  Level Minneapolis Center
Fri 07:17:18 PM 43.1978 -93.9278 103° East 523 602 31,000  Level Minneapolis Center
Fri 07:18:20 PM 43.1650 -93.7367 103° East 522 601 31,000  Level Minneapolis Center
Fri 07:19:22 PM 43.1256 -93.5078 103° East 521 600 31,000  Level Minneapolis Center
Fri 07:20:24 PM 43.0931 -93.3175 103° East 517 595 31,000  Level Minneapolis Center
Fri 07:21:27 PM 43.0736 -93.1233 98° East 519 597 31,000  Level Minneapolis Center
Fri 07:22:29 PM 43.0517 -92.9294 99° East 521 600 31,000  Level Minneapolis Center
Fri 07:23:31 PM 43.0253 -92.6981 99° East 518 596 31,000  Level Minneapolis Center
Fri 07:24:18 PM 43.0069 -92.5828 102° East 519 597 31,000  Level Chicago Center
Fri 07:25:20 PM 42.9825 -92.3508 98° East 520 598 31,000  Level Chicago Center
Fri 07:26:22 PM 42.9600 -92.1578 99° East 519 597 31,000  Level Chicago Center
Fri 07:26:37 PM 42.9578 -92.1181 94° East 520 598 31,000  Level Minneapolis Center
Fri 07:27:24 PM 42.9383 -91.9642 100° East 519 597 31,000  Level Chicago Center
Fri 07:28:26 PM 42.9158 -91.7692 99° East 519 597 31,000  Level Chicago Center
Fri 07:29:29 PM 42.8911 -91.5700 100° East 521 600 31,000  Level Chicago Center
Fri 07:30:31 PM 42.8672 -91.3733 99° East 517 595 31,000  Level Chicago Center
Fri 07:31:33 PM 42.8383 -91.1417 100° East 517 595 31,000 -339 Level Chicago Center
Fri 07:32:35 PM 42.8133 -90.9514 100° East 516 594 30,300 -968 Descending Chicago Center
Fri 07:33:37 PM 42.7886 -90.7642 100° East 507 583 29,000 -1,210 Descending Chicago Center
Fri 07:34:39 PM 42.7647 -90.5789 100° East 502 578 27,800 -1,210 Descending Chicago Center
Fri 07:35:41 PM 42.7403 -90.3964 100° East 496 571 26,500 -1,306 Descending Chicago Center
Fri 07:36:43 PM 42.7150 -90.2175 101° East 488 562 25,100 -1,210 Descending Chicago Center
Fri 07:37:45 PM 42.6856 -90.0044 101° East 484 557 24,000 -532 Descending Chicago Center
Fri 07:38:47 PM 42.6592 -89.8161 101° East 484 557 24,000  Level Chicago Center
Fri 07:39:49 PM 42.6331 -89.6372 101° East 487 560 24,000 -48 Level Chicago Center
Fri 07:40:51 PM 42.6083 -89.4586 101° East 483 556 23,900 -532 Descending Chicago Center
Fri 07:41:53 PM 42.5839 -89.2975 102° East 442 509 22,900 -2,032 Descending Chicago Center
Fri 07:42:55 PM 42.5589 -89.1275 101° East 403 464 19,700 -3,000 Descending Chicago Center
Fri 07:43:57 PM 42.5225 -88.9872 109° East 400 460 16,700 -2,592 Descending Chicago Center
Fri 07:45:00 PM 42.4811 -88.8544 113° Southeast 387 445 14,300 -2,129 Descending Chicago Center
Fri 07:46:01 PM 42.4450 -88.7331 112° Southeast 356 410 12,300 -1,805 Descending Chicago Center
Fri 07:47:03 PM 42.4111 -88.6211 112° Southeast 328 377 10,600 -1,597 Descending Chicago Center
Fri 07:48:05 PM 42.3858 -88.4992 106° East 296 341 9,000 -919 Descending Chicago Center
Fri 07:49:07 PM 42.3722 -88.3897 100° East 294 338 8,700 -484 Descending Chicago Center
Fri 07:50:09 PM 42.3053 -88.3431 153° Southeast 289 333 8,000 -912 Descending Chicago Center
Fri 07:51:12 PM 42.2250 -88.3375 177° South 289 333 6,800 -1,200 Descending Chicago Center
Fri 07:52:14 PM 42.1478 -88.3311 176° South 283 326 5,500 -871 Descending Chicago Center
Fri 07:53:16 PM 42.0814 -88.3283 178° South 248 285 5,000 -726 Descending Chicago Center
Fri 07:54:18 PM 42.0047 -88.3261 179° South 236 272 4,000 -484 Descending Chicago Center
Fri 07:55:20 PM 41.9839 -88.2617 113° Southeast 211 243 4,000  Level Chicago Center
Fri 07:56:22 PM 41.9661 -88.1964 110° East 197 227 4,000 -194 Level Chicago Center
Fri 07:57:24 PM 41.9681 -88.1258 88° East 191 220 3,600 -695 Descending Chicago Center
Fri 07:57:57 PM 41.9667 -88.0833 93° East 181 208 2,900 -1,273 Descending Chicago TRACON

Login

Don't have an account? Register now (free) for customized features, flight alerts, and more!